createdAt,value
2019-05-13T00:01:25.253Z,64.72
2019-05-13T00:03:57.502Z,64.68
2019-05-13T00:06:34.134Z,64.59
2019-05-13T00:09:05.724Z,64.52
2019-05-13T00:11:37.955Z,64.77
2019-05-13T00:14:10.210Z,64.88
2019-05-13T00:16:44.711Z,65.05
2019-05-13T00:19:16.385Z,65.13
2019-05-13T00:21:48.583Z,65.42
2019-05-13T00:24:20.785Z,65.18
2019-05-13T00:26:53.284Z,65.33
2019-05-13T00:29:25.490Z,64.94
2019-05-13T00:31:57.692Z,65.12
2019-05-13T00:34:29.946Z,65.05
2019-05-13T00:37:08.885Z,64.92
2019-05-13T00:39:36.073Z,65.01
2019-05-13T00:42:08.268Z,65.33
2019-05-13T00:44:40.494Z,65.28
2019-05-13T00:47:13.294Z,65.31
2019-05-13T00:49:45.660Z,65.50
2019-05-13T00:52:17.907Z,65.77
2019-05-13T00:54:50.114Z,65.67
2019-05-13T00:57:23.813Z,65.97
2019-05-13T00:59:57.122Z,65.98
2019-05-13T01:02:29.350Z,66.20
2019-05-13T01:05:04.137Z,66.25
2019-05-13T01:07:35.517Z,66.38
2019-05-13T01:10:07.755Z,66.37
2019-05-13T01:12:40.151Z,66.34
2019-05-13T01:15:13.494Z,66.55
2019-05-13T01:17:46.041Z,66.49
2019-05-13T01:20:18.285Z,67.08
2019-05-13T01:22:50.477Z,67.23
2019-05-13T01:25:24.417Z,67.37
2019-05-13T01:27:56.621Z,66.94
2019-05-13T01:30:28.878Z,67.10
2019-05-13T01:33:01.104Z,67.07
2019-05-13T01:35:34.207Z,67.20
2019-05-13T01:38:06.878Z,67.46
2019-05-13T01:40:39.131Z,67.39
2019-05-13T01:43:14.132Z,67.73
2019-05-13T01:45:45.286Z,68.36
2019-05-13T01:48:17.499Z,68.46
2019-05-13T01:50:49.719Z,68.40
2019-05-13T01:53:24.539Z,68.62
2019-05-13T01:55:56.877Z,68.76
2019-05-13T01:58:29.120Z,68.84
2019-05-13T02:01:01.388Z,68.97
2019-05-13T02:03:33.989Z,68.91
2019-05-13T02:06:06.581Z,69.03
2019-05-13T02:08:38.784Z,68.91
2019-05-13T02:11:13.179Z,69.03
2019-05-13T02:13:44.969Z,68.72
2019-05-13T02:16:17.206Z,68.98
2019-05-13T02:18:49.473Z,69.32
2019-05-13T02:21:23.948Z,69.44
2019-05-13T02:23:55.705Z,69.38
2019-05-13T02:26:27.975Z,69.54
2019-05-13T02:29:00.171Z,69.74
2019-05-13T02:31:45.957Z,70.29
2019-05-13T02:34:06.323Z,70.60
2019-05-13T02:36:38.538Z,70.42
2019-05-13T02:39:12.878Z,70.67
2019-05-13T02:41:44.725Z,70.33
2019-05-13T02:44:16.960Z,70.28
2019-05-13T02:46:52.296Z,70.40
2019-05-13T02:49:23.406Z,70.52
2019-05-13T02:51:55.708Z,70.74
2019-05-13T02:54:27.969Z,70.97
2019-05-13T02:57:03.292Z,71.19
2019-05-13T02:59:34.183Z,71.15
2019-05-13T03:02:06.372Z,71.03
2019-05-13T03:04:38.605Z,70.92
2019-05-13T03:07:11.951Z,70.90
2019-05-13T03:09:44.434Z,70.84
2019-05-13T03:12:16.707Z,71.15
2019-05-13T03:14:48.975Z,71.15
2019-05-13T03:17:22.299Z,71.35
2019-05-13T03:19:54.886Z,71.23
2019-05-13T03:22:27.325Z,71.45
2019-05-13T03:25:02.853Z,71.76
2019-05-13T03:27:34.043Z,71.74
2019-05-13T03:30:06.397Z,72.34
2019-05-13T03:32:46.156Z,72.42
2019-05-13T03:35:16.384Z,72.41
2019-05-13T03:37:46.458Z,72.28
2019-05-13T03:40:18.651Z,72.31
2019-05-13T03:42:53.575Z,72.02
2019-05-13T03:45:24.839Z,72.14
2019-05-13T03:47:58.121Z,72.15
2019-05-13T03:50:34.217Z,72.02
2019-05-13T03:53:04.285Z,72.10
2019-05-13T03:55:36.510Z,71.90
2019-05-13T03:58:08.718Z,71.97
2019-05-13T04:00:42.617Z,71.86
2019-05-13T04:03:14.900Z,71.94
2019-05-13T04:05:47.165Z,72.21
2019-05-13T04:08:22.446Z,72.40
2019-05-13T04:10:53.349Z,72.34
2019-05-13T04:13:25.605Z,72.24
2019-05-13T04:15:57.804Z,72.32
2019-05-13T04:18:32.014Z,72.14
2019-05-13T04:21:03.959Z,72.08
2019-05-13T04:23:36.448Z,72.11
2019-05-13T04:26:08.656Z,71.74
2019-05-13T04:28:43.454Z,71.68
2019-05-13T04:31:14.874Z,71.73
2019-05-13T04:33:47.138Z,71.61
2019-05-13T04:36:19.393Z,71.54
2019-05-13T04:38:53.068Z,71.64
2019-05-13T04:41:25.439Z,71.93
2019-05-13T04:43:57.685Z,71.94
2019-05-13T04:46:32.806Z,71.58
2019-05-13T04:49:03.869Z,71.31
2019-05-13T04:51:36.083Z,71.50
2019-05-13T04:54:08.310Z,71.52
2019-05-13T04:56:42.197Z,71.45
2019-05-13T04:59:14.451Z,71.44
2019-05-13T05:01:57.871Z,71.23
2019-05-13T05:04:28.459Z,71.09
2019-05-13T05:06:54.652Z,71.04
2019-05-13T05:09:29.157Z,70.79
2019-05-13T05:12:02.248Z,70.38
2019-05-13T05:14:35.772Z,69.71
2019-05-13T05:17:12.241Z,68.87
2019-05-13T05:19:47.217Z,69.27
2019-05-13T05:22:17.081Z,69.01
2019-05-13T05:24:51.877Z,68.49
2019-05-13T05:27:23.269Z,68.10
2019-05-13T05:29:55.324Z,68.20
2019-05-13T05:32:27.797Z,67.54
2019-05-13T05:35:02.340Z,67.30
2019-05-13T05:37:34.567Z,66.75
2019-05-13T05:40:08.841Z,66.80
2019-05-13T05:42:41.326Z,66.43
2019-05-13T05:45:13.622Z,66.61
2019-05-13T05:47:45.845Z,66.32
2019-05-13T05:50:18.058Z,66.04
2019-05-13T05:52:51.357Z,65.98
2019-05-13T05:55:23.970Z,65.20
2019-05-13T05:57:58.227Z,65.35
2019-05-13T06:00:32.346Z,64.77
2019-05-13T06:03:04.572Z,64.48
2019-05-13T06:05:36.794Z,64.31
2019-05-13T06:08:11.303Z,64.10
2019-05-13T06:10:49.918Z,63.79
2019-05-13T06:13:17.067Z,63.32
2019-05-13T06:15:51.429Z,63.41
2019-05-13T06:18:23.225Z,62.83
2019-05-13T06:20:55.424Z,62.40
2019-05-13T06:23:27.692Z,61.94
2019-05-13T06:26:01.894Z,61.82
2019-05-13T06:28:34.048Z,61.84
2019-05-13T06:31:06.271Z,61.35
2019-05-13T06:33:38.529Z,61.77
2019-05-13T06:36:11.372Z,61.60
2019-05-13T06:38:43.914Z,61.00
2019-05-13T06:41:16.134Z,61.00
2019-05-13T06:43:48.355Z,60.55
2019-05-13T06:46:21.851Z,60.31
2019-05-13T06:48:54.216Z,60.04
2019-05-13T06:51:26.490Z,59.89
2019-05-13T06:53:58.698Z,59.90
2019-05-13T06:56:32.273Z,60.03
2019-05-13T06:59:04.839Z,59.24
2019-05-13T07:01:37.073Z,60.30
2019-05-13T07:04:11.631Z,59.72
2019-05-13T07:06:45.299Z,59.74
2019-05-13T07:09:17.575Z,59.45
2019-05-13T07:11:51.862Z,59.31
2019-05-13T07:14:23.746Z,58.82
2019-05-13T07:16:55.959Z,58.70
2019-05-13T07:19:28.205Z,56.94
2019-05-13T07:22:02.927Z,56.88
2019-05-13T07:24:34.347Z,56.48
2019-05-13T07:27:06.620Z,56.58
2019-05-13T07:29:38.934Z,55.86
2019-05-13T07:32:12.006Z,56.00
2019-05-13T07:34:44.758Z,56.45
2019-05-13T07:37:16.805Z,56.71
2019-05-13T07:39:49.016Z,55.58
2019-05-13T07:42:22.241Z,55.11
2019-05-13T07:44:54.846Z,55.05
2019-05-13T07:47:27.083Z,54.15
2019-05-13T07:50:02.190Z,54.38
2019-05-13T07:52:33.246Z,54.39
2019-05-13T07:55:05.464Z,53.55
2019-05-13T07:57:37.723Z,49.51
2019-05-13T08:00:12.244Z,49.79
2019-05-13T08:02:43.980Z,50.48
2019-05-13T08:05:16.183Z,51.66
2019-05-13T08:07:48.435Z,49.62
2019-05-13T08:10:21.948Z,49.37
2019-05-13T08:12:54.366Z,49.26
2019-05-13T08:15:26.597Z,47.59
2019-05-13T08:18:01.810Z,48.03
2019-05-13T08:20:33.044Z,48.00
2019-05-13T08:23:05.330Z,48.03
2019-05-13T08:25:37.596Z,49.25
2019-05-13T08:28:12.025Z,50.17
2019-05-13T08:30:43.762Z,48.82
2019-05-13T08:33:15.965Z,46.87
2019-05-13T08:35:53.914Z,46.54
2019-05-13T08:38:23.058Z,47.73
2019-05-13T08:40:55.550Z,48.96
2019-05-13T08:43:27.829Z,49.31
2019-05-13T08:46:01.897Z,47.61
2019-05-13T08:48:34.202Z,46.45
2019-05-13T08:51:06.434Z,46.89
2019-05-13T08:53:38.701Z,45.67
2019-05-13T08:56:12.207Z,45.15
2019-05-13T08:58:44.577Z,44.71
2019-05-13T09:01:16.758Z,44.33
2019-05-13T09:03:48.957Z,45.21
2019-05-13T09:06:22.128Z,44.59
2019-05-13T09:08:54.844Z,43.71
2019-05-13T09:11:27.125Z,43.74
2019-05-13T09:14:02.418Z,43.33
2019-05-13T09:16:34.821Z,43.54
2019-05-13T09:19:08.111Z,41.71
2019-05-13T09:21:42.309Z,41.05
2019-05-13T09:24:24.532Z,40.92
2019-05-13T09:26:52.443Z,40.38
2019-05-13T09:29:24.200Z,39.84
2019-05-13T09:31:56.581Z,38.30
2019-05-13T09:34:32.519Z,38.25
2019-05-13T09:37:04.017Z,38.55
2019-05-13T09:39:36.234Z,38.78
2019-05-13T09:42:08.467Z,37.83
2019-05-13T09:44:41.966Z,38.27
2019-05-13T09:47:14.415Z,38.60
2019-05-13T09:49:46.681Z,38.66
2019-05-13T09:52:18.708Z,37.89
2019-05-13T09:54:52.308Z,35.64
2019-05-13T09:57:24.840Z,34.22
2019-05-13T09:59:57.096Z,34.20
2019-05-13T10:02:31.882Z,34.70
2019-05-13T10:05:03.248Z,33.73
2019-05-13T10:07:35.533Z,34.35
2019-05-13T10:10:07.734Z,35.63
2019-05-13T10:12:42.511Z,35.62
2019-05-13T10:15:13.933Z,35.08
2019-05-13T10:17:46.215Z,35.51
2019-05-13T10:20:18.421Z,35.33
2019-05-13T10:22:52.681Z,35.75
2019-05-13T10:25:24.566Z,36.01
2019-05-13T10:27:57.027Z,34.51
2019-05-13T10:30:29.243Z,34.54
2019-05-13T10:33:02.865Z,33.45
2019-05-13T10:35:35.331Z,34.39
2019-05-13T10:38:07.581Z,34.13
2019-05-13T10:40:39.789Z,37.93
2019-05-13T10:43:27.088Z,39.92
2019-05-13T10:45:45.962Z,40.39
2019-05-13T10:48:18.160Z,40.22
2019-05-13T10:50:52.917Z,40.17
2019-05-13T10:53:25.538Z,40.77
2019-05-13T10:55:58.097Z,38.97
2019-05-13T10:58:30.307Z,35.60
2019-05-13T11:01:03.203Z,38.46
2019-05-13T11:03:35.522Z,39.34
2019-05-13T11:06:07.783Z,39.21
2019-05-13T11:08:42.266Z,40.21
2019-05-13T11:11:13.962Z,40.43
2019-05-13T11:13:55.063Z,40.38
2019-05-13T11:16:22.621Z,40.11
2019-05-13T11:18:55.076Z,39.63
2019-05-13T11:21:27.298Z,40.19
2019-05-13T11:23:59.505Z,39.81
2019-05-13T11:26:36.169Z,39.55
2019-05-13T11:29:05.671Z,39.39
2019-05-13T11:31:37.917Z,38.91
2019-05-13T11:34:10.127Z,38.09
2019-05-13T11:36:43.324Z,37.00
2019-05-13T11:39:15.747Z,37.63
2019-05-13T11:41:48.026Z,37.73
2019-05-13T11:44:22.551Z,37.12
2019-05-13T11:46:54.238Z,37.23
2019-05-13T11:49:26.421Z,36.57
2019-05-13T11:51:58.678Z,32.78
2019-05-13T11:54:30.894Z,29.29
2019-05-13T11:57:06.358Z,27.10
2019-05-13T11:59:37.045Z,25.87
2019-05-13T12:02:13.228Z,24.54
2019-05-13T12:04:44.196Z,23.75
2019-05-13T12:07:16.699Z,22.67
2019-05-13T12:09:51.308Z,21.60
2019-05-13T12:12:30.683Z,20.07
2019-05-13T12:15:27.015Z,19.75
2019-05-13T12:17:35.178Z,19.78
2019-05-13T12:20:07.957Z,20.17
2019-05-13T12:22:42.590Z,19.61
2019-05-13T12:25:15.864Z,19.64
2019-05-13T12:27:51.363Z,19.58
2019-05-13T12:30:23.176Z,18.87
2019-05-13T12:32:56.002Z,18.16
2019-05-13T12:35:32.247Z,18.79
2019-05-13T12:38:03.726Z,18.25
2019-05-13T12:40:36.606Z,17.92
2019-05-13T12:43:12.636Z,17.69
2019-05-13T12:45:44.249Z,17.49
2019-05-13T12:48:17.151Z,17.18
2019-05-13T12:50:52.955Z,17.28
2019-05-13T12:53:25.554Z,17.80
2019-05-13T12:55:58.356Z,18.00
2019-05-13T12:58:33.845Z,16.60
2019-05-13T13:01:05.533Z,16.76
2019-05-13T13:03:38.409Z,17.64
2019-05-13T13:06:27.151Z,15.77
2019-05-13T13:08:49.243Z,16.28
2019-05-13T13:11:22.825Z,15.90
2019-05-13T13:13:59.345Z,16.25
2019-05-13T13:16:34.282Z,16.42
2019-05-13T13:19:03.900Z,15.75
2019-05-13T13:21:37.969Z,14.37
2019-05-13T13:24:12.310Z,14.37
2019-05-13T13:26:45.440Z,14.36
2019-05-13T13:29:19.052Z,14.36
2019-05-13T13:31:55.675Z,13.47
2019-05-13T13:34:26.556Z,14.13
2019-05-13T13:36:59.539Z,13.72
2019-05-13T13:39:32.494Z,12.91
2019-05-13T13:42:06.129Z,12.73
2019-05-13T13:44:39.045Z,13.02
2019-05-13T13:47:14.671Z,13.02
2019-05-13T13:49:46.636Z,12.70
2019-05-13T13:52:19.548Z,11.78
2019-05-13T13:55:02.037Z,12.63
2019-05-13T13:57:27.234Z,12.63
2019-05-13T14:00:32.936Z,14.25
2019-05-13T14:02:37.326Z,16.82
2019-05-13T14:05:12.525Z,18.22
2019-05-13T14:07:43.608Z,20.06
2019-05-13T14:10:16.331Z,19.93
2019-05-13T14:12:52.285Z,21.46
2019-05-13T14:15:23.643Z,23.05
2019-05-13T14:17:55.938Z,22.75
2019-05-13T14:20:28.140Z,22.75
2019-05-13T14:23:02.810Z,23.74
2019-05-13T14:25:34.421Z,23.85
2019-05-13T14:28:06.714Z,24.29
2019-05-13T14:30:39.051Z,24.90
2019-05-13T14:33:11.877Z,24.85
2019-05-13T14:35:44.486Z,26.16
2019-05-13T14:38:16.718Z,26.27
2019-05-13T14:40:51.892Z,27.19
2019-05-13T14:43:25.726Z,28.10
2019-05-13T14:45:58.135Z,28.99
2019-05-13T14:48:32.992Z,28.74
2019-05-13T14:51:04.586Z,29.26
2019-05-13T14:53:36.880Z,28.87
2019-05-13T14:56:09.363Z,28.19
2019-05-13T14:58:41.923Z,28.79
2019-05-13T15:01:19.207Z,28.32
2019-05-13T15:03:48.647Z,26.88
2019-05-13T15:06:22.140Z,28.18
2019-05-13T15:08:54.597Z,27.11
2019-05-13T15:11:26.828Z,26.91
2019-05-13T15:13:59.083Z,26.70
2019-05-13T15:16:31.971Z,27.40
2019-05-13T15:19:04.595Z,28.07
2019-05-13T15:21:36.857Z,29.01
2019-05-13T15:24:09.075Z,30.01
2019-05-13T15:26:42.244Z,30.48
2019-05-13T15:29:14.677Z,30.88
2019-05-13T15:31:46.942Z,31.58
2019-05-13T15:34:19.176Z,32.30
2019-05-13T15:36:51.583Z,32.28
2019-05-13T15:39:24.214Z,32.23
2019-05-13T15:41:56.468Z,32.53
2019-05-13T15:44:32.394Z,33.27
2019-05-13T15:47:18.207Z,33.74
2019-05-13T15:49:37.763Z,34.49
2019-05-13T15:52:11.775Z,35.00
2019-05-13T15:54:43.917Z,35.38
2019-05-13T15:57:16.182Z,35.37
2019-05-13T15:59:48.488Z,35.50
2019-05-13T16:02:22.670Z,33.83
2019-05-13T16:05:01.296Z,33.90
2019-05-13T16:07:29.004Z,34.04
2019-05-13T16:10:02.088Z,34.82
2019-05-13T16:12:35.430Z,34.74
2019-05-13T16:15:07.663Z,33.93
2019-05-13T16:17:44.488Z,32.82
2019-05-13T16:20:14.019Z,33.11
2019-05-13T16:22:46.233Z,33.92
2019-05-13T16:25:18.673Z,34.77
2019-05-13T16:27:52.061Z,35.90
2019-05-13T16:30:24.399Z,36.33
2019-05-13T16:32:56.670Z,36.74
2019-05-13T16:35:31.715Z,36.62
2019-05-13T16:38:03.005Z,35.75
2019-05-13T16:40:36.666Z,32.76
2019-05-13T16:43:12.727Z,33.04
2019-05-13T16:45:44.269Z,33.79
2019-05-13T16:48:16.612Z,34.46
2019-05-13T16:50:48.840Z,34.73
2019-05-13T16:53:25.648Z,32.25
2019-05-13T16:55:55.015Z,30.78
2019-05-13T16:58:27.287Z,30.19
2019-05-13T17:01:02.195Z,28.84
2019-05-13T17:03:33.540Z,27.01
2019-05-13T17:06:05.853Z,25.30
2019-05-13T17:08:38.901Z,24.59
2019-05-13T17:11:11.845Z,25.22
2019-05-13T17:13:44.817Z,25.43
2019-05-13T17:16:17.782Z,25.52
2019-05-13T17:18:52.065Z,24.83
2019-05-13T17:21:24.147Z,26.02
2019-05-13T17:23:56.389Z,26.90
2019-05-13T17:26:29.243Z,25.89
2019-05-13T17:29:01.576Z,26.05
2019-05-13T17:31:33.844Z,26.90
2019-05-13T17:34:06.197Z,26.65
2019-05-13T17:36:41.724Z,25.77
2019-05-13T17:39:13.574Z,25.17
2019-05-13T17:41:45.880Z,24.97
2019-05-13T17:44:18.866Z,24.81
2019-05-13T17:46:52.204Z,27.16
2019-05-13T17:49:24.577Z,29.71
2019-05-13T17:51:56.686Z,32.38
2019-05-13T17:54:31.840Z,34.15
2019-05-13T17:57:03.928Z,35.99
2019-05-13T17:59:36.220Z,37.03
2019-05-13T18:02:08.453Z,38.01
2019-05-13T18:04:41.483Z,38.69
2019-05-13T18:07:14.332Z,39.53
2019-05-13T18:09:46.560Z,39.62
2019-05-13T18:12:18.763Z,39.78
2019-05-13T18:14:51.687Z,39.29
2019-05-13T18:17:24.225Z,39.36
2019-05-13T18:19:56.603Z,39.59
2019-05-13T18:22:31.188Z,39.66
2019-05-13T18:25:03.441Z,40.08
2019-05-13T18:27:35.709Z,40.04
2019-05-13T18:30:07.961Z,40.43
2019-05-13T18:32:40.169Z,40.75
2019-05-13T18:35:12.462Z,40.78
2019-05-13T18:37:44.689Z,41.34
2019-05-13T18:40:16.894Z,41.55
2019-05-13T18:42:51.325Z,41.84
2019-05-13T18:45:23.336Z,42.42
2019-05-13T18:47:56.078Z,42.98
2019-05-13T18:50:31.291Z,42.99
2019-05-13T18:53:03.305Z,43.34
2019-05-13T18:55:35.534Z,43.57
2019-05-13T18:58:07.941Z,43.78
2019-05-13T19:00:41.593Z,44.35
2019-05-13T19:03:15.047Z,44.56
2019-05-13T19:05:47.310Z,44.99
2019-05-13T19:08:21.441Z,45.13
2019-05-13T19:10:53.595Z,45.52
2019-05-13T19:13:25.891Z,45.74
2019-05-13T19:15:58.269Z,46.26
2019-05-13T19:18:32.054Z,46.27
2019-05-13T19:21:05.777Z,46.86
2019-05-13T19:23:38.184Z,47.35
2019-05-13T19:26:11.293Z,47.83
2019-05-13T19:28:43.795Z,48.05
2019-05-13T19:31:16.022Z,48.40
2019-05-13T19:33:48.303Z,48.72
2019-05-13T19:36:21.106Z,49.08
2019-05-13T19:38:53.478Z,49.59
2019-05-13T19:41:25.758Z,49.85
2019-05-13T19:43:57.989Z,49.96
2019-05-13T19:46:31.404Z,50.55
2019-05-13T19:49:03.851Z,50.88
2019-05-13T19:51:36.164Z,51.25
2019-05-13T19:54:08.395Z,51.27
2019-05-13T19:56:40.646Z,51.58
2019-05-13T19:59:12.936Z,51.76
2019-05-13T20:01:45.177Z,51.90
2019-05-13T20:04:17.436Z,52.23
2019-05-13T20:06:51.794Z,52.34
2019-05-13T20:09:24.030Z,52.53
2019-05-13T20:11:56.901Z,53.03
2019-05-13T20:14:29.770Z,53.37
2019-05-13T20:17:01.964Z,53.63
2019-05-13T20:19:46.519Z,53.67
2019-05-13T20:22:11.627Z,54.05
2019-05-13T20:24:45.027Z,54.27
2019-05-13T20:27:17.350Z,54.33
2019-05-13T20:29:51.224Z,54.61
2019-05-13T20:32:25.589Z,54.66
2019-05-13T20:34:57.842Z,54.76
2019-05-13T20:37:32.042Z,54.97
2019-05-13T20:40:04.128Z,55.24
2019-05-13T20:42:36.409Z,55.23
2019-05-13T20:45:08.640Z,55.32
2019-05-13T20:47:42.060Z,55.51
2019-05-13T20:50:14.524Z,55.22
2019-05-13T20:52:46.729Z,55.44
2019-05-13T20:55:18.956Z,55.31
2019-05-13T20:57:53.068Z,55.46
2019-05-13T21:00:25.153Z,55.13
2019-05-13T21:02:57.446Z,55.02
2019-05-13T21:05:31.922Z,54.97
2019-05-13T21:08:03.748Z,54.85
2019-05-13T21:10:36.055Z,54.69
2019-05-13T21:13:08.293Z,54.84
2019-05-13T21:15:42.418Z,54.44
2019-05-13T21:18:14.450Z,54.32
2019-05-13T21:20:46.659Z,54.42
2019-05-13T21:23:19.063Z,54.38
2019-05-13T21:25:51.400Z,54.48
2019-05-13T21:28:23.663Z,54.32
2019-05-13T21:30:55.891Z,54.07
2019-05-13T21:33:28.127Z,54.13
2019-05-13T21:36:01.709Z,54.09
2019-05-13T21:38:34.346Z,54.04
2019-05-13T21:41:06.826Z,54.09
2019-05-13T21:43:41.296Z,54.27
2019-05-13T21:46:13.067Z,54.26
2019-05-13T21:48:46.437Z,54.32
2019-05-13T21:51:19.004Z,54.25
2019-05-13T21:53:51.911Z,54.53
2019-05-13T21:56:24.360Z,54.54
2019-05-13T21:58:56.437Z,54.80
2019-05-13T22:01:31.333Z,54.74
2019-05-13T22:04:02.657Z,54.85
2019-05-13T22:06:34.962Z,55.10
2019-05-13T22:09:07.202Z,55.33
2019-05-13T22:11:41.787Z,55.53
2019-05-13T22:14:13.414Z,56.02
2019-05-13T22:16:47.644Z,55.92
2019-05-13T22:19:22.318Z,56.02
2019-05-13T22:21:54.638Z,56.40
2019-05-13T22:24:26.886Z,56.57
2019-05-13T22:26:59.103Z,56.90
2019-05-13T22:29:32.057Z,57.13
2019-05-13T22:32:04.715Z,57.52
2019-05-13T22:34:36.949Z,57.88
2019-05-13T22:37:11.493Z,58.32
2019-05-13T22:39:43.146Z,58.37
2019-05-13T22:42:15.372Z,59.01
2019-05-13T22:44:47.624Z,58.98
2019-05-13T22:47:21.983Z,59.31
2019-05-13T22:49:56.827Z,59.50
2019-05-13T22:52:27.911Z,59.58
2019-05-13T22:55:02.317Z,59.88
2019-05-13T22:57:34.214Z,60.12
2019-05-13T23:00:06.461Z,60.23
2019-05-13T23:02:42.153Z,60.41
2019-05-13T23:05:14.259Z,60.74
2019-05-13T23:07:46.525Z,60.71
2019-05-13T23:10:18.724Z,61.01
2019-05-13T23:12:51.629Z,61.17
2019-05-13T23:15:23.984Z,61.27
2019-05-13T23:17:56.274Z,61.37
2019-05-13T23:20:28.478Z,61.50
2019-05-13T23:23:01.304Z,61.69
2019-05-13T23:25:33.727Z,61.65
2019-05-13T23:28:06.162Z,61.63
2019-05-13T23:30:38.409Z,61.94
2019-05-13T23:33:11.617Z,62.04
2019-05-13T23:35:44.146Z,62.17
2019-05-13T23:38:16.193Z,62.45
2019-05-13T23:40:48.468Z,62.59
2019-05-13T23:43:21.709Z,62.62
2019-05-13T23:45:54.084Z,62.53
2019-05-13T23:48:26.356Z,62.71
2019-05-13T23:50:58.574Z,62.75
2019-05-13T23:53:31.548Z,62.84
2019-05-13T23:56:04.030Z,62.98
2019-05-13T23:58:36.279Z,63.03
